Port Angeles, WA

1:35 AM PST on January 22, 2017 (GMT -0800)
Fairchild International | | Change Station
Active Advisory: Small Craft Advisory

Elev 289 ft 48.12 °N, 123.50 °W | Updated 42 minutes ago

Partly Cloudy
Partly Cloudy
32 °F
Feels Like 32 °F
N
0
Wind Variable Wind from North

Today
High -- | Low -- °F
--% Chance of Precip.
Yesterday
High -- | Low -- °F
Precip. -- in
Pressure 29.54 in
Visibility 10.0 miles
Clouds Few 2100 ft
Dew Point 31 °F
Humidity 96%
Rainfall 0.00 in
Snow Depth Not available.
7:53 AM 4:58 PM
Waning Crescent, 28% visible
METAR KCLM 220853Z AUTO 00000KT 10SM FEW021 00/M01 A2953 RMK AO2 SLP002 T00001006 50001
Pressure 29.54 in
Visibility 10.0 miles
Clouds Few 2100 ft
Dew Point 31 °F
Humidity 96%
Rainfall 0.00 in
Snow Depth Not available.
7:53 AM 4:58 PM
Waning Crescent, 28% visible
METAR KCLM 220853Z AUTO 00000KT 10SM FEW021 00/M01 A2953 RMK AO2 SLP002 T00001006 50001

Get Your Daily Forecast Email!

Thanks for signing up!

Be on the lookout for a verification email in your inbox.

You'll start receiving the daily forecast at 8 AM.

×

10-Day Weather Forecast

Almanac

Astronomy

Jan. 22, 2017 Rise Set
Actual Time
Civil Twilight
Nautical Twilight
Astronomical Twilight
Moon
Length of Visible Light
Length of Day
Tomorrow will be .
, % of the Moon is Illuminated

Today's Extremes

State Highs State Lows

Community

WunderPhotos

Upload Photos

1,962,540 photos uploaded!

WunderBlog® & News

Nearby

Air Quality

  Air Quality AQ Index Pollutant
Not available.

Snow Depth

Station Depth Elevation

Earthquake Activity

City Distance Mag. Time & Date
Minimum magnitude displayed is 2.5.

Coastal Water Temperatures

Place Temperature

Stations

Nearby Weather Stations

Station Location Temp. Windchill Dew Point Humidity Wind Precip. Elev Updated Type
                   

Watches & Warnings

Small Craft Advisory
Issued: 8:57 PM PST Jan. 21, 2017 – National Weather Service

... Small Craft Advisory remains in effect until 6 PM PST Sunday...

* winds... east 15 to 25 knots.

Precautionary/preparedness actions...

A Small Craft Advisory means that wind speeds of 21 to 33 knots are
expected to produce hazardous wave conditions to small craft.
Inexperienced mariners... especially those operating smaller vessels
should avoid navigating in these conditions.